Time;durP1;ratioP1;P1;durP2;ratioP2;P2;SDS_P1;SDS_P2;PMS_P1;PMS_P2;Temp;Humidity;BMP_temperature;BMP_pressure;BME280_temperature;BME280_humidity;BME280_pressure;Samples;Min_cycle;Max_cycle;Signal;HPM_P1;HPM_P2
2021/10/09 00:00:04;;;;;;;6.05;2.17;;;231.20;2252.80;;;;;;5032495;28;20019;-82
2021/10/09 00:02:29;;;;;;;3.60;2.03;;;231.20;2252.80;;;;;;5033151;28;20049;-83
2021/10/09 00:04:55;;;;;;;9.55;2.78;;;231.20;2252.80;;;;;;5008021;28;20054;-81
2021/10/09 00:07:21;;;;;;;;;;;231.30;2252.80;;;;;;5006269;28;20026;-83
2021/10/09 00:09:47;;;;;;;6.70;2.75;;;231.30;2252.80;;;;;;5012666;28;19917;-82
2021/10/09 00:12:13;;;;;;;4.15;2.38;;;231.20;2252.80;;;;;;4998599;28;20037;-83
2021/10/09 00:14:39;;;;;;;5.22;2.17;;;231.20;2252.80;;;;;;4996077;28;20029;-82
2021/10/09 00:17:05;;;;;;;;;;;231.20;2252.80;;;;;;4996767;28;20045;-78
2021/10/09 00:19:31;;;;;;;5.97;2.72;;;231.30;2252.80;;;;;;4995813;28;19976;-82
2021/10/09 00:21:56;;;;;;;6.30;3.00;;;231.30;2252.80;;;;;;4995639;28;20038;-78
2021/10/09 00:24:22;;;;;;;;;;;256.00;2252.80;;;;;;5013784;28;20025;-81
2021/10/09 00:26:48;;;;;;;5.45;2.00;;;231.30;2252.80;;;;;;5013680;28;19948;-78
2021/10/09 00:29:13;;;;;;;;;;;231.30;2252.80;;;;;;5014156;28;20026;-79
2021/10/09 00:31:39;;;;;;;4.50;2.00;;;231.30;2252.80;;;;;;5013613;28;19910;-81
2021/10/09 00:34:06;;;;;;;3.75;1.95;;;231.20;2252.80;;;;;;5013295;28;20038;-79
2021/10/09 00:36:32;;;;;;;7.78;2.28;;;231.10;2252.80;;;;;;5013113;28;20121;-78
2021/10/09 00:38:58;;;;;;;4.40;2.03;;;231.10;2252.80;;;;;;5009202;28;20070;-79
2021/10/09 00:41:24;;;;;;;3.95;2.20;;;230.90;2252.80;;;;;;5003875;28;20088;-77
2021/10/09 00:43:50;;;;;;;4.97;2.55;;;230.90;2252.80;;;;;;4991948;28;20058;-80
2021/10/09 00:46:16;;;;;;;5.55;2.05;;;230.90;2252.80;;;;;;4996433;28;20538;-81
2021/10/09 00:48:42;;;;;;;;;;;230.90;2252.80;;;;;;5013518;28;20022;-77
2021/10/09 00:51:08;;;;;;;4.28;2.05;;;230.90;2252.80;;;;;;5013382;28;20363;-79
2021/10/09 00:53:37;;;;;;;6.90;2.47;;;231.00;2252.80;;;;;;5013669;28;20036;-81
2021/10/09 00:56:03;;;;;;;6.15;2.22;;;231.00;2252.80;;;;;;5011098;28;20026;-82
2021/10/09 00:58:29;;;;;;;5.25;2.10;;;231.00;2252.80;;;;;;5008635;28;20479;-81
2021/10/09 01:00:56;;;;;;;4.25;2.03;;;231.20;2252.80;;;;;;5010626;28;20053;-80
2021/10/09 01:03:23;;;;;;;3.45;2.17;;;231.20;2252.80;;;;;;5001475;28;20029;-81
2021/10/09 01:05:49;;;;;;;4.05;2.45;;;231.20;2252.80;;;;;;5032433;28;20068;-79
2021/10/09 01:08:15;;;;;;;11.27;2.30;;;231.30;2252.80;;;;;;5024948;28;20076;-81
2021/10/09 01:10:41;;;;;;;;;;;231.30;2252.80;;;;;;5033484;28;20033;-79
2021/10/09 01:13:07;;;;;;;4.35;2.05;;;231.30;2252.80;;;;;;5032937;28;19905;-78
2021/10/09 01:15:33;;;;;;;;;;;256.00;2252.80;;;;;;5031317;28;20041;-78
2021/10/09 01:18:14;;;;;;;7.93;2.20;;;256.10;2252.80;;;;;;5030631;28;20028;-81
2021/10/09 01:20:50;;;;;;;6.35;2.85;;;256.10;2252.80;;;;;;5030463;28;20021;-80
2021/10/09 01:23:17;;;;;;;4.60;2.13;;;256.30;2252.80;;;;;;5038348;28;20022;-81
2021/10/09 01:25:43;;;;;;;6.60;2.83;;;256.40;2252.80;;;;;;5029454;28;20026;-80
2021/10/09 01:28:12;;;;;;;4.55;1.98;;;256.50;2252.80;;;;;;5025099;28;20544;-78
2021/10/09 01:30:38;;;;;;;7.45;2.40;;;256.70;2252.80;;;;;;5031971;28;20033;-78
2021/10/09 01:33:05;;;;;;;5.85;2.83;;;256.70;2252.80;;;;;;5024015;28;20030;-81
2021/10/09 01:35:30;;;;;;;6.45;2.72;;;256.70;2252.80;;;;;;5032202;28;20040;-78
2021/10/09 01:37:56;;;;;;;4.25;2.22;;;256.80;2252.80;;;;;;5029324;28;20382;-80
2021/10/09 01:40:22;;;;;;;;;;;256.80;2252.80;;;;;;5033427;28;20377;-80
2021/10/09 01:42:48;;;;;;;3.63;2.15;;;256.60;2252.80;;;;;;5032762;28;20004;-78
2021/10/09 01:45:14;;;;;;;5.30;2.50;;;256.50;2252.80;;;;;;5014860;28;20020;-79
2021/10/09 01:47:40;;;;;;;4.10;2.30;;;256.50;2252.80;;;;;;5028149;28;20120;-77
2021/10/09 01:50:07;;;;;;;5.88;2.58;;;256.50;2252.80;;;;;;5014625;28;20032;-78
2021/10/09 01:52:33;;;;;;;7.38;2.80;;;256.30;2252.80;;;;;;5032309;28;20027;-78
2021/10/09 01:54:59;;;;;;;3.85;2.15;;;256.10;2252.80;;;;;;5032340;28;20534;-77
2021/10/09 01:57:24;;;;;;;;;;;231.30;2252.80;;;;;;5026874;28;20550;-77
2021/10/09 01:59:50;;;;;;;6.65;3.42;;;256.00;2252.80;;;;;;5032214;28;19913;-77
2021/10/09 02:02:15;;;;;;;;;;;256.00;2252.80;;;;;;5033074;28;20021;-79
2021/10/09 02:04:41;;;;;;;3.97;2.50;;;231.30;2252.80;;;;;;5028380;28;19917;-80
2021/10/09 02:07:12;;;;;;;;;;;256.00;2252.80;;;;;;5024656;28;20041;-79
2021/10/09 02:09:38;;;;;;;6.57;2.58;;;256.10;2252.80;;;;;;5043099;28;19912;-80
2021/10/09 02:12:04;;;;;;;6.40;2.60;;;256.10;2252.80;;;;;;5023985;28;20403;-80
2021/10/09 02:27:10;;;;;;;7.68;3.17;;;256.40;2252.80;;;;;;5032018;28;20030;-79
2021/10/09 02:29:35;;;;;;;6.18;2.80;;;256.50;2252.80;;;;;;5027513;28;20029;-77
2021/10/09 02:32:01;;;;;;;5.68;3.03;;;256.30;2252.80;;;;;;5028786;28;20040;-79
2021/10/09 02:34:27;;;;;;;5.88;2.55;;;256.30;2252.80;;;;;;5038744;28;20021;-80
2021/10/09 02:36:52;;;;;;;7.38;2.92;;;256.40;2252.80;;;;;;5047191;28;20036;-77
2021/10/09 02:39:18;;;;;;;;;;;256.40;2252.80;;;;;;5046602;28;20026;-79
2021/10/09 02:41:44;;;;;;;6.97;2.80;;;256.30;2252.80;;;;;;5031967;28;20262;-79
2021/10/09 02:44:10;;;;;;;9.10;3.78;;;256.40;2252.80;;;;;;5015628;28;20108;-79
2021/10/09 02:46:35;;;;;;;;;;;256.50;2252.80;;;;;;5039389;28;20025;-78
2021/10/09 02:49:01;;;;;;;4.55;2.60;;;256.70;2252.80;;;;;;5028370;28;19951;-79
2021/10/09 02:51:27;;;;;;;;;;;256.70;2252.80;;;;;;5026350;28;20048;-79
2021/10/09 02:53:52;;;;;;;6.82;2.72;;;256.70;2252.80;;;;;;5063232;28;20329;-78
2021/10/09 02:56:18;;;;;;;;;;;256.70;2252.80;;;;;;5028774;28;20031;-79
2021/10/09 02:58:44;;;;;;;9.50;2.90;;;256.70;2252.80;;;;;;5031447;28;20262;-80
2021/10/09 03:01:09;;;;;;;;;;;256.70;2252.80;;;;;;5013754;28;20042;-80
2021/10/09 03:03:35;;;;;;;5.15;2.20;;;256.70;2252.80;;;;;;5022196;28;19917;-80
2021/10/09 03:06:00;;;;;;;;;;;256.50;2252.80;;;;;;5006647;28;20053;-79
2021/10/09 03:08:26;;;;;;;4.53;2.42;;;256.60;2252.80;;;;;;5011225;28;20434;-78
2021/10/09 03:10:52;;;;;;;;;;;256.50;2252.80;;;;;;5011460;28;20083;-79
2021/10/09 03:13:17;;;;;;;6.75;2.65;;;256.60;2252.80;;;;;;5014132;28;20263;-79
2021/10/09 03:15:43;;;;;;;;;;;256.50;2252.80;;;;;;5014399;28;20391;-79
2021/10/09 03:18:09;;;;;;;8.50;2.75;;;256.40;2252.80;;;;;;5008948;28;19948;-79
2021/10/09 03:20:36;;;;;;;6.65;3.08;;;256.40;2252.80;;;;;;5018121;28;20454;-80
2021/10/09 03:23:02;;;;;;;4.65;2.75;;;256.40;2252.80;;;;;;5014123;28;20119;-80
2021/10/09 03:25:27;;;;;;;4.78;2.97;;;256.50;2252.80;;;;;;5028607;28;20069;-80
2021/10/09 03:27:53;;;;;;;;;;;256.50;2252.80;;;;;;5014008;28;20488;-78
2021/10/09 03:30:19;;;;;;;6.68;2.30;;;256.50;2252.80;;;;;;5025463;28;19905;-80
2021/10/09 03:32:45;;;;;;;;;;;256.50;2252.80;;;;;;5027007;28;20024;-80
2021/10/09 03:35:11;;;;;;;6.10;2.92;;;256.50;2252.80;;;;;;5025963;28;19948;-79
2021/10/09 03:37:37;;;;;;;4.35;2.80;;;256.30;2252.80;;;;;;5027934;28;20076;-77
2021/10/09 03:40:07;;;;;;;7.43;3.10;;;256.40;2252.80;;;;;;5013709;28;20025;-79
2021/10/09 03:42:43;;;;;;;6.18;2.90;;;256.40;2252.80;;;;;;5016282;28;20464;-81
2021/10/09 03:45:25;;;;;;;4.03;2.60;;;256.30;2252.80;;;;;;5054521;28;20041;-79
2021/10/09 03:48:00;;;;;;;6.70;2.75;;;256.30;2252.80;;;;;;5013969;28;20025;-79
2021/10/09 03:52:57;;;;;;;5.78;3.33;;;256.30;2252.80;;;;;;5030530;28;20113;-80
2021/10/09 03:55:23;;;;;;;3.88;2.60;;;256.40;2252.80;;;;;;5016236;28;20116;-80
2021/10/09 03:57:49;;;;;;;6.95;3.42;;;256.40;2252.80;;;;;;5016500;28;20439;-78
2021/10/09 04:00:15;;;;;;;;;;;256.50;2252.80;;;;;;5017255;28;20025;-78
2021/10/09 04:02:41;;;;;;;4.97;2.55;;;256.40;2252.80;;;;;;5033172;28;19912;-77
2021/10/09 04:05:07;;;;;;;4.55;2.50;;;256.30;2252.80;;;;;;5014850;28;20474;-78
2021/10/09 04:07:33;;;;;;;5.22;2.50;;;256.30;2252.80;;;;;;5008910;28;20024;-79
2021/10/09 04:09:59;;;;;;;5.60;2.70;;;256.30;2252.80;;;;;;5028995;28;20030;-80
2021/10/09 04:12:24;;;;;;;;;;;256.30;2252.80;;;;;;5016520;28;20502;-79
2021/10/09 04:14:50;;;;;;;5.53;2.78;;;256.30;2252.80;;;;;;5014305;28;19905;-79
2021/10/09 04:17:16;;;;;;;;;;;256.40;2252.80;;;;;;5018154;28;20033;-77
2021/10/09 04:19:41;;;;;;;4.68;2.20;;;256.40;2252.80;;;;;;5005957;28;20311;-78
2021/10/09 04:22:07;;;;;;;7.18;3.10;;;256.30;2252.80;;;;;;5028937;28;20060;-78
2021/10/09 04:24:33;;;;;;;;;;;256.40;2252.80;;;;;;5016903;28;20048;-80
2021/10/09 04:26:59;;;;;;;5.65;3.00;;;256.40;2252.80;;;;;;5016277;28;20347;-79
2021/10/09 04:29:25;;;;;;;10.20;3.13;;;256.50;2252.80;;;;;;5016299;28;20026;-79
2021/10/09 04:31:50;;;;;;;;;;;256.50;2252.80;;;;;;5029190;28;20029;-78
2021/10/09 04:34:16;;;;;;;7.82;2.55;;;256.50;2252.80;;;;;;5030855;28;20027;-78
2021/10/09 04:36:42;;;;;;;;;;;256.50;2252.80;;;;;;5009343;28;20030;-78
2021/10/09 04:39:08;;;;;;;4.60;2.35;;;256.30;2252.80;;;;;;5014082;28;19916;-78
2021/10/09 04:41:33;;;;;;;;;;;256.30;2252.80;;;;;;5033081;28;20398;-79
2021/10/09 04:43:59;;;;;;;5.03;2.50;;;256.30;2252.80;;;;;;5040869;28;19909;-78
2021/10/09 04:46:24;;;;;;;;;;;256.40;2252.80;;;;;;5011580;28;20029;-79
2021/10/09 04:48:50;;;;;;;5.20;2.17;;;256.40;2252.80;;;;;;5015671;28;19905;-78
2021/10/09 04:51:16;;;;;;;;;;;256.40;2252.80;;;;;;5016347;28;20075;-78
2021/10/09 04:53:41;;;;;;;4.18;2.40;;;256.40;2252.80;;;;;;5039402;28;20049;-80
2021/10/09 04:56:07;;;;;;;;;;;256.30;2252.80;;;;;;5016002;28;20017;-77
2021/10/09 04:58:33;;;;;;;5.20;2.45;;;256.30;2252.80;;;;;;5015356;28;19985;-78
2021/10/09 05:00:58;;;;;;;;;;;256.20;2252.80;;;;;;5015998;28;20031;-77
2021/10/09 05:03:24;;;;;;;7.20;2.45;;;256.20;2252.80;;;;;;5014158;28;20309;-78
2021/10/09 05:05:49;;;;;;;;;;;256.20;2252.80;;;;;;5027849;28;20025;-78
2021/10/09 05:08:15;;;;;;;5.45;2.50;;;256.30;2252.80;;;;;;5028391;28;20366;-78
2021/10/09 05:10:43;;;;;;;;;;;256.30;2252.80;;;;;;5028777;28;20022;-79
2021/10/09 05:13:09;;;;;;;6.85;2.40;;;256.40;2252.80;;;;;;5015612;28;19905;-81
2021/10/09 05:15:42;;;;;;;4.60;2.63;;;256.50;2252.80;;;;;;5025479;28;20028;-77
2021/10/09 05:18:09;;;;;;;4.20;2.38;;;256.50;2252.80;;;;;;5025396;28;20124;-78
2021/10/09 05:20:36;;;;;;;8.88;3.42;;;256.50;2252.80;;;;;;5009433;28;20467;-78
2021/10/09 05:23:01;;;;;;;7.88;3.03;;;256.50;2252.80;;;;;;5025367;28;20036;-77
2021/10/09 05:25:28;;;;;;;3.88;2.63;;;256.70;2252.80;;;;;;5015326;28;20471;-76
2021/10/09 05:28:02;;;;;;;4.72;2.40;;;256.80;2252.80;;;;;;5014935;28;20033;-78
2021/10/09 05:30:28;;;;;;;6.07;2.55;;;256.80;2252.80;;;;;;5013013;28;20454;-78
2021/10/09 05:35:38;;;;;;;8.13;5.43;;;281.60;2278.40;;;;;;5047726;28;20024;-78
2021/10/09 05:38:04;;;;;;;13.27;5.22;;;281.60;2278.40;;;;;;5029342;28;20501;-79
2021/10/09 05:40:29;;;;;;;6.70;3.78;;;281.70;2278.40;;;;;;5031929;28;20063;-78
2021/10/09 05:42:55;;;;;;;10.40;5.43;;;281.80;2278.40;;;;;;5021984;28;20047;-79
2021/10/09 05:45:21;;;;;;;7.68;4.95;;;281.80;2278.40;;;;;;5051771;28;20459;-76
2021/10/09 05:47:49;;;;;;;;;;;281.80;2278.40;;;;;;5015595;28;20095;-80
2021/10/09 05:50:16;;;;;;;7.80;4.85;;;281.70;2278.40;;;;;;5014763;28;19909;-80
2021/10/09 05:52:54;;;;;;;7.45;4.20;;;281.60;2278.40;;;;;;5013786;28;20026;-75
2021/10/09 05:55:37;;;;;;;17.70;3.97;;;281.60;2278.40;;;;;;5022612;28;20086;-75
2021/10/09 05:58:21;;;;;;;6.05;3.58;;;281.70;2278.40;;;;;;5029756;28;20483;-76
2021/10/09 06:46:52;;;;;;;5.22;2.75;;;281.70;2278.40;;;;;;5020600;28;20028;-79
2021/10/09 06:59:27;;;;;;;10.85;3.17;;;281.70;2278.40;;;;;;5027390;28;20069;-80
2021/10/09 07:00:15;;;;;;;4.03;2.50;;;281.70;2278.40;;;;;;5028023;28;20148;-79
2021/10/09 07:02:42;;;;;;;4.13;3.05;;;281.70;2278.40;;;;;;5021469;28;20067;-78
2021/10/09 07:05:10;;;;;;;5.47;3.08;;;281.70;2278.40;;;;;;5028841;28;20517;-81
2021/10/09 07:08:04;;;;;;;8.18;3.90;;;281.60;2278.40;;;;;;5008379;28;20099;-83
2021/10/09 07:10:23;;;;;;;3.97;2.53;;;256.90;2252.80;;;;;;5026545;28;20026;-88
2021/10/09 07:12:49;;;;;;;4.13;2.88;;;281.60;2278.40;;;;;;5020456;28;20026;-83
2021/10/09 07:15:15;;;;;;;4.38;2.80;;;281.70;2278.40;;;;;;5014712;28;20021;-87
2021/10/09 07:17:42;;;;;;;7.32;2.50;;;281.70;2278.40;;;;;;5014323;28;20029;-82
2021/10/09 07:20:08;;;;;;;4.03;2.17;;;281.60;2278.40;;;;;;5014239;28;20029;-80
2021/10/09 07:22:35;;;;;;;3.80;2.30;;;281.60;2278.40;;;;;;5027464;28;20022;-81
2021/10/09 07:25:03;;;;;;;5.55;2.63;;;281.70;2278.40;;;;;;5014253;28;20029;-80
2021/10/09 07:27:29;;;;;;;8.10;3.08;;;281.70;2278.40;;;;;;5014386;28;20025;-83
2021/10/09 07:29:54;;;;;;;5.68;2.83;;;281.70;2278.40;;;;;;5016373;28;20029;-79
2021/10/09 07:32:20;;;;;;;;;;;281.70;2278.40;;;;;;5018977;28;20048;-80
2021/10/09 07:34:46;;;;;;;5.47;2.40;;;281.90;2278.40;;;;;;5029199;28;19913;-81
2021/10/09 07:37:11;;;;;;;;;;;281.90;2278.40;;;;;;5011611;28;20037;-82
2021/10/09 07:39:37;;;;;;;7.22;3.70;;;281.80;2278.40;;;;;;5016616;28;19905;-82
2021/10/09 07:42:04;;;;;;;6.30;3.45;;;281.90;2278.40;;;;;;5010828;28;20471;-80
2021/10/09 07:44:30;;;;;;;8.82;4.35;;;282.10;2278.40;;;;;;5026180;28;20072;-81
2021/10/09 07:46:56;;;;;;;6.38;3.95;;;282.10;2278.40;;;;;;5029261;28;20026;-81
2021/10/09 07:49:22;;;;;;;7.97;4.78;;;282.20;2278.40;;;;;;5009519;28;20140;-75
2021/10/09 07:51:48;;;;;;;;;;;282.30;2278.40;;;;;;5030453;28;20017;-75
2021/10/09 07:54:13;;;;;;;24.75;14.57;;;282.20;2278.40;;;;;;5040874;28;19911;-77
2021/10/09 07:56:39;;;;;;;;;;;282.40;2278.40;;;;;;5034377;28;20018;-77
2021/10/09 07:59:05;;;;;;;12.05;6.85;;;282.40;2278.40;;;;;;5034196;28;19913;-77
2021/10/09 08:01:33;;;;;;;19.85;6.78;;;282.50;2278.40;;;;;;5016261;28;20029;-78
2021/10/09 08:03:59;;;;;;;11.32;6.65;;;282.30;2278.40;;;;;;5040584;28;20041;-79
2021/10/09 08:06:26;;;;;;;8.88;5.43;;;282.50;2278.40;;;;;;5039828;28;20479;-80
2021/10/09 08:08:52;;;;;;;10.35;6.43;;;307.30;2304.00;;;;;;5016715;28;20025;-80
2021/10/09 08:11:18;;;;;;;13.20;7.20;;;307.20;2304.00;;;;;;5016321;28;20021;-78
2021/10/09 08:13:44;;;;;;;16.48;6.63;;;307.30;2304.00;;;;;;5016406;28;20018;-76
2021/10/09 08:16:10;;;;;;;14.10;6.88;;;307.20;2304.00;;;;;;5016679;28;20028;-77
2021/10/09 08:18:36;;;;;;;12.15;7.28;;;307.30;2304.00;;;;;;5033978;28;20041;-77
2021/10/09 08:21:04;;;;;;;11.82;7.38;;;307.30;2304.00;;;;;;5033610;28;20029;-77
2021/10/09 08:23:39;;;;;;;16.08;8.18;;;307.20;2304.00;;;;;;5036762;28;20029;-77
2021/10/09 08:26:32;;;;;;;16.15;7.72;;;307.30;2304.00;;;;;;5015924;28;20104;-76
2021/10/09 08:39:31;;;;;;;11.80;7.88;;;307.50;2304.00;;;;;;5033536;28;20105;-80
2021/10/09 08:41:57;;;;;;;13.80;8.65;;;307.60;2304.00;;;;;;5016610;28;20045;-79
2021/10/09 08:44:23;;;;;;;13.27;7.53;;;307.60;2304.00;;;;;;5016224;28;20494;-77
2021/10/09 08:46:49;;;;;;;12.98;6.95;;;307.60;2304.00;;;;;;5033785;28;20033;-79
2021/10/09 08:49:15;;;;;;;14.05;6.80;;;307.60;2304.00;;;;;;5033664;28;20021;-78
2021/10/09 08:51:41;;;;;;;12.07;6.63;;;307.60;2304.00;;;;;;5020660;28;20033;-76
2021/10/09 08:54:09;;;;;;;12.23;7.07;;;307.60;2304.00;;;;;;5033480;28;20013;-79
2021/10/09 08:56:38;;;;;;;13.07;7.03;;;307.60;2304.00;;;;;;5020212;28;20044;-76
2021/10/09 08:59:09;;;;;;;12.50;8.38;;;307.70;2304.00;;;;;;5033561;28;20040;-76
2021/10/09 09:01:58;;;;;;;17.92;9.98;;;307.70;2304.00;;;;;;5016124;28;20021;-76
2021/10/09 09:40:03;;;;;;;16.60;8.88;;;307.70;2304.00;;;;;;5032709;28;20044;-76
2021/10/09 09:42:29;;;;;;;14.35;8.05;;;307.80;2304.00;;;;;;5032119;28;20064;-78
2021/10/09 09:44:57;;;;;;;10.45;6.95;;;307.80;2304.00;;;;;;5032295;28;20033;-75
2021/10/09 09:47:39;;;;;;;15.88;7.55;;;307.80;2304.00;;;;;;5026415;28;20493;-75
2021/10/09 09:50:08;;;;;;;13.57;6.90;;;307.80;2304.00;;;;;;5030398;28;20025;-79
2021/10/09 09:52:45;;;;;;;10.32;6.43;;;307.80;2304.00;;;;;;5019960;28;20034;-79
2021/10/09 09:55:12;;;;;;;12.55;6.40;;;307.90;2304.00;;;;;;5031380;28;20029;-81
2021/10/09 09:57:39;;;;;;;14.82;7.20;;;307.80;2304.00;;;;;;5032314;28;20048;-79
2021/10/09 10:00:11;;;;;;;17.35;7.75;;;307.90;2304.00;;;;;;5038262;28;20033;-76
2021/10/09 10:03:04;;;;;;;8.45;6.00;;;307.70;2304.00;;;;;;5029113;28;20497;-77
2021/10/09 10:05:30;;;;;;;10.40;6.90;;;307.80;2304.00;;;;;;5017335;28;20041;-78
2021/10/09 10:07:57;;;;;;;16.63;7.63;;;307.90;2304.00;;;;;;5029368;28;21300;-76
2021/10/09 10:10:23;;;;;;;12.43;7.05;;;307.80;2304.00;;;;;;5014851;28;20030;-76
2021/10/09 10:12:57;;;;;;;13.82;8.18;;;307.90;2304.00;;;;;;5028241;28;20045;-75
2021/10/09 10:15:28;;;;;;;13.77;6.70;;;307.80;2304.00;;;;;;5024926;28;20029;-76
2021/10/09 10:17:54;;;;;;;13.93;6.93;;;307.90;2304.00;;;;;;5030832;28;20095;-76
2021/10/09 10:20:22;;;;;;;18.27;7.72;;;307.90;2304.00;;;;;;5031606;28;20025;-82
2021/10/09 10:22:51;;;;;;;13.13;6.68;;;307.90;2304.00;;;;;;5025082;28;20030;-73
2021/10/09 10:25:23;;;;;;;11.60;6.50;;;307.90;2304.00;;;;;;5024807;28;20479;-78
2021/10/09 10:28:14;;;;;;;14.32;8.00;;;307.80;2304.00;;;;;;5032316;28;20025;-76
2021/10/09 10:30:44;;;;;;;9.05;6.22;;;307.90;2304.00;;;;;;5027777;28;20407;-76
2021/10/09 10:33:10;;;;;;;11.52;6.60;;;307.90;2304.00;;;;;;5031885;28;20485;-79
2021/10/09 10:35:36;;;;;;;13.60;6.13;;;308.00;2304.00;;;;;;5030418;28;20033;-74
2021/10/09 10:38:10;;;;;;;9.32;5.18;;;308.00;2304.00;;;;;;5031671;28;20037;-75
2021/10/09 10:40:54;;;;;;;14.55;5.95;;;308.10;2304.00;;;;;;5030689;28;20475;-74
2021/10/09 10:46:00;;;;;;;14.68;8.68;;;308.10;2304.00;;;;;;5025981;28;20061;-80
2021/10/09 10:59:56;;;;;;;14.23;8.65;;;308.10;2304.00;;;;;;5020596;28;20506;-77
2021/10/09 11:02:27;;;;;;;17.67;11.18;;;308.10;2304.00;;;;;;5034292;28;20021;-78
2021/10/09 11:04:53;;;;;;;12.00;5.75;;;332.80;2329.60;;;;;;5033795;28;20092;-74
2021/10/09 11:07:24;;;;;;;9.93;5.38;;;308.10;2304.00;;;;;;5039478;28;20033;-80
2021/10/09 11:09:51;;;;;;;15.00;6.82;;;332.80;2329.60;;;;;;5032176;28;20072;-78
2021/10/09 11:12:32;;;;;;;12.60;5.20;;;308.00;2304.00;;;;;;5033942;28;20029;-77
2021/10/09 11:15:20;;;;;;;10.13;5.30;;;308.10;2304.00;;;;;;5033303;28;20029;-75
2021/10/09 11:17:55;;;;;;;8.70;5.22;;;332.80;2329.60;;;;;;5021815;28;20036;-77
2021/10/09 11:20:29;;;;;;;7.05;4.78;;;308.10;2304.00;;;;;;5022576;28;20022;-76
2021/10/09 11:23:00;;;;;;;7.25;4.80;;;308.10;2304.00;;;;;;5032456;28;20040;-75
2021/10/09 11:25:30;;;;;;;13.32;6.30;;;308.10;2304.00;;;;;;5033291;28;20033;-74
2021/10/09 11:27:58;;;;;;;8.35;5.40;;;308.10;2304.00;;;;;;5031343;28;20029;-75
2021/10/09 11:30:24;;;;;;;10.75;5.20;;;332.80;2329.60;;;;;;5026838;28;20036;-74
2021/10/09 11:32:53;;;;;;;8.75;4.78;;;332.90;2329.60;;;;;;5029235;28;20092;-75
2021/10/09 11:35:29;;;;;;;7.53;5.18;;;332.80;2329.60;;;;;;5005792;28;20084;-75
2021/10/09 11:37:56;;;;;;;9.77;4.68;;;332.80;2329.60;;;;;;5032403;28;20112;-74
2021/10/09 11:40:33;;;;;;;10.48;5.50;;;332.90;2329.60;;;;;;5032069;28;20083;-77
2021/10/09 11:43:14;;;;;;;9.45;5.57;;;332.90;2329.60;;;;;;5026951;28;20032;-75
2021/10/09 11:45:49;;;;;;;13.75;5.85;;;332.80;2329.60;;;;;;5033198;28;20024;-74
2021/10/09 11:56:49;;;;;;;11.30;5.68;;;308.10;2304.00;;;;;;5010819;28;20044;-75
2021/10/09 11:59:40;;;;;;;8.98;5.60;;;308.10;2304.00;;;;;;5010198;28;20029;-75
2021/10/09 12:02:07;;;;;;;15.75;5.65;;;308.00;2304.00;;;;;;4995073;28;20034;-78
2021/10/09 12:04:34;;;;;;;9.40;5.30;;;308.00;2304.00;;;;;;5011032;28;20050;-76
2021/10/09 12:09:45;;;;;;;10.43;4.50;;;308.10;2304.00;;;;;;5011039;28;20180;-77
2021/10/09 12:12:12;;;;;;;10.57;5.72;;;308.00;2304.00;;;;;;5009813;28;20041;-74
2021/10/09 12:14:38;;;;;;;10.35;5.35;;;308.00;2304.00;;;;;;5007872;28;20026;-76
2021/10/09 12:17:03;;;;;;;13.57;5.72;;;307.90;2304.00;;;;;;5011065;28;20038;-76
2021/10/09 12:19:30;;;;;;;;;;;307.90;2304.00;;;;;;5011924;28;20037;-75
2021/10/09 12:22:06;;;;;;;9.43;5.30;;;308.00;2304.00;;;;;;5027076;28;19913;-74
2021/10/09 12:24:34;;;;;;;5.65;3.67;;;308.10;2304.00;;;;;;4994789;28;20032;-74
2021/10/09 12:27:15;;;;;;;9.65;5.05;;;307.90;2304.00;;;;;;5008611;28;20558;-74
2021/10/09 12:29:56;;;;;;;18.80;9.38;;;308.00;2304.00;;;;;;5008306;28;20474;-76
2021/10/09 12:32:22;;;;;;;16.42;6.85;;;307.90;2304.00;;;;;;5011873;28;20045;-77
2021/10/09 12:35:05;;;;;;;15.07;6.30;;;307.90;2304.00;;;;;;5029630;28;20029;-75
2021/10/09 12:37:33;;;;;;;12.95;8.50;;;307.90;2304.00;;;;;;5028030;28;20061;-75
2021/10/09 12:40:16;;;;;;;16.65;7.43;;;307.90;2304.00;;;;;;5027634;28;20057;-75
2021/10/09 12:42:44;;;;;;;17.92;7.75;;;308.00;2304.00;;;;;;5029951;28;20026;-74
2021/10/09 12:45:10;;;;;;;15.90;7.65;;;307.90;2304.00;;;;;;5026435;28;20053;-76
2021/10/09 12:47:36;;;;;;;14.20;7.35;;;307.80;2304.00;;;;;;5023731;28;20033;-75
2021/10/09 12:50:02;;;;;;;11.98;7.25;;;307.80;2304.00;;;;;;5031076;28;20021;-76
2021/10/09 12:52:27;;;;;;;15.48;6.97;;;307.80;2304.00;;;;;;5031358;28;20022;-76
2021/10/09 12:54:53;;;;;;;14.75;8.18;;;307.80;2304.00;;;;;;5021137;28;20116;-75
2021/10/09 12:57:19;;;;;;;;;;;307.80;2304.00;;;;;;5031249;28;20074;-75
2021/10/09 12:59:44;;;;;;;14.18;6.60;;;307.70;2304.00;;;;;;5043045;28;20389;-75
2021/10/09 13:02:10;;;;;;;11.70;6.57;;;307.60;2304.00;;;;;;5043804;28;20021;-75
2021/10/09 13:04:37;;;;;;;12.30;6.95;;;307.70;2304.00;;;;;;5008809;28;20823;-77
2021/10/09 13:07:03;;;;;;;13.95;6.53;;;307.70;2304.00;;;;;;4992263;28;20541;-75
2021/10/09 13:09:29;;;;;;;10.82;6.65;;;307.80;2304.00;;;;;;4991467;28;20038;-76
2021/10/09 13:11:58;;;;;;;13.43;6.85;;;307.80;2304.00;;;;;;5010399;28;20038;-76
2021/10/09 13:14:24;;;;;;;12.77;6.82;;;307.80;2304.00;;;;;;5004680;28;20041;-78
2021/10/09 13:16:50;;;;;;;15.70;8.07;;;307.80;2304.00;;;;;;4996439;28;20026;-79
2021/10/09 13:19:16;;;;;;;13.45;6.93;;;307.80;2304.00;;;;;;5015501;28;20618;-81
2021/10/09 13:21:41;;;;;;;12.85;7.88;;;307.80;2304.00;;;;;;5010694;28;20104;-83
2021/10/09 13:24:08;;;;;;;;;;;307.70;2304.00;;;;;;4996114;28;20487;-82
2021/10/09 13:26:33;;;;;;;17.80;7.68;;;307.80;2304.00;;;;;;5012407;28;19992;-77
2021/10/09 13:29:00;;;;;;;14.07;7.82;;;307.80;2304.00;;;;;;4989840;28;20156;-78
2021/10/09 13:31:26;;;;;;;14.93;7.43;;;307.70;2304.00;;;;;;4994803;28;20041;-79
2021/10/09 13:33:52;;;;;;;12.32;7.22;;;307.70;2304.00;;;;;;4995058;28;20124;-79
2021/10/09 13:36:22;;;;;;;15.73;6.18;;;307.70;2304.00;;;;;;4995441;28;20443;-84
2021/10/09 13:38:48;;;;;;;10.68;6.55;;;307.70;2304.00;;;;;;4992829;28;20095;-83
2021/10/09 13:41:14;;;;;;;11.90;6.15;;;307.70;2304.00;;;;;;4995073;28;20013;-81
2021/10/09 13:43:40;;;;;;;12.32;6.35;;;307.80;2304.00;;;;;;4995506;28;20403;-84
2021/10/09 13:46:06;;;;;;;12.93;5.80;;;307.60;2304.00;;;;;;4994137;28;20096;-80
2021/10/09 13:48:32;;;;;;;9.80;5.07;;;307.70;2304.00;;;;;;5011317;28;20047;-78
2021/10/09 13:50:58;;;;;;;9.32;4.82;;;307.70;2304.00;;;;;;4994060;28;20118;-78
2021/10/09 13:53:24;;;;;;;10.70;4.68;;;307.60;2304.00;;;;;;5011124;28;20057;-76
2021/10/09 13:55:51;;;;;;;6.80;3.65;;;307.70;2304.00;;;;;;4993727;28;20030;-77
2021/10/09 13:58:18;;;;;;;7.90;4.10;;;307.70;2304.00;;;;;;4993438;28;20040;-77
2021/10/09 14:00:45;;;;;;;7.78;3.58;;;307.60;2304.00;;;;;;5011524;28;20097;-77
2021/10/09 14:03:13;;;;;;;10.82;4.88;;;307.50;2304.00;;;;;;5014143;28;20030;-76
2021/10/09 14:05:39;;;;;;;7.18;4.95;;;307.50;2304.00;;;;;;5013081;28;20026;-77
2021/10/09 14:08:06;;;;;;;8.75;4.78;;;307.60;2304.00;;;;;;5012380;28;20091;-76
2021/10/09 14:10:32;;;;;;;9.93;4.57;;;307.50;2304.00;;;;;;5030849;28;20458;-76
2021/10/09 14:13:00;;;;;;;10.18;5.35;;;307.40;2304.00;;;;;;5031091;28;20033;-77
2021/10/09 14:15:27;;;;;;;9.02;5.38;;;307.50;2304.00;;;;;;5011701;28;20387;-77
2021/10/09 14:17:53;;;;;;;10.35;6.18;;;307.40;2304.00;;;;;;5012946;28;20044;-76
2021/10/09 14:20:19;;;;;;;8.68;5.80;;;307.30;2304.00;;;;;;5012127;28;20029;-75
2021/10/09 14:22:45;;;;;;;9.85;5.30;;;307.30;2304.00;;;;;;5012146;28;20053;-77
2021/10/09 14:25:12;;;;;;;8.63;5.47;;;307.40;2304.00;;;;;;5011680;28;20072;-77
2021/10/09 14:27:38;;;;;;;15.30;6.38;;;307.50;2304.00;;;;;;5013899;28;20041;-76
2021/10/09 14:30:06;;;;;;;11.57;6.45;;;307.50;2304.00;;;;;;5018770;28;20103;-77
2021/10/09 14:32:32;;;;;;;9.23;5.32;;;307.50;2304.00;;;;;;5022266;28;20064;-76
2021/10/09 14:34:57;;;;;;;13.35;6.22;;;307.40;2304.00;;;;;;5011758;28;20069;-76
2021/10/09 14:37:23;;;;;;;12.98;7.20;;;307.40;2304.00;;;;;;5010459;28;20069;-75
2021/10/09 14:39:49;;;;;;;;;;;307.40;2304.00;;;;;;5011061;28;20028;-76
2021/10/09 14:42:15;;;;;;;10.10;5.45;;;307.50;2304.00;;;;;;5002413;28;19909;-76
2021/10/09 14:44:42;;;;;;;12.35;6.55;;;307.40;2304.00;;;;;;5011935;28;20037;-76
2021/10/09 14:49:46;;;;;;;10.95;7.00;;;307.30;2304.00;;;;;;5029644;28;20129;-75
2021/10/09 15:19:06;;;;;;;18.95;10.70;;;307.20;2304.00;;;;;;5027781;28;20032;-76
2021/10/09 15:21:31;;;;;;;17.45;9.32;;;282.50;2278.40;;;;;;5011882;28;20029;-77